Havelock, Nebraska
Current Conditions -  °F | °C
As of 1:38 PM on Thursday 18 Dec 2014 (Local Time) from KLNK Reporting Station
Overcast Overcast  
Wind Chill: 31°   Ceiling: 2100
Heat Index: 31°   Visibility: 7mi
Dew Point: 26°   Wind: 3mph
Humidity: 82%   Direction: 180°S
Pressure: 30.2"   Gusts: NA
Location:  40.8505°N, 96.6337°W
Report Text: KLNK 181938Z 18003KT 7SM SCT015 OVC021 M01/M03 A3020 RMK AO2 T10061033
Loading
Personal Weather Stations






























Interactive Weather Map New forecast layout! Learn more

10-Day Weather Forecast

Advertisements
Track Severe Weather on mobile